Dara'A, Syria
Current Conditions -  °F | °C
As of 6:50 PM on Sunday 23 Nov 2014 (Local Time) from LLIB Reporting Station
Haze Haze  
Wind Chill: 54°   Ceiling: 2000
Heat Index: 54°   Visibility: 2.5mi
Dew Point: 52°   Wind: 3mph
Humidity: 94%   Direction: NA
Pressure: 29.97"   Gusts: NA
Location:  32.6°N, 36.1°E
Report Text: LLIB 231550Z VRB03KT 4000 BR BKN020 12/11 Q1015 RERA
Loading
Personal Weather Stations






























Interactive Weather Map New forecast layout! Learn more

10-Day Weather Forecast

Advertisements
Track Severe Weather on mobile